createdAt,value
2017-02-06T00:00:17.533Z,0
2017-02-06T00:01:28.204Z,0
2017-02-06T00:02:38.875Z,0
2017-02-06T00:03:49.547Z,0
2017-02-06T00:05:00.221Z,0
2017-02-06T00:06:10.500Z,0
2017-02-06T00:07:21.175Z,0
2017-02-06T00:08:31.855Z,0
2017-02-06T00:09:42.537Z,0
2017-02-06T00:10:53.213Z,0
2017-02-06T00:12:03.487Z,0
2017-02-06T00:13:14.162Z,0
2017-02-06T00:14:24.441Z,0
2017-02-06T00:15:35.167Z,0
2017-02-06T00:16:45.838Z,0
2017-02-06T00:17:56.510Z,0
2017-02-06T00:19:07.186Z,0
2017-02-06T00:20:17.864Z,0
2017-02-06T00:21:28.535Z,0
2017-02-06T00:22:39.203Z,0
2017-02-06T00:23:49.474Z,0
2017-02-06T00:25:00.146Z,0
2017-02-06T00:26:10.437Z,0
2017-02-06T00:27:21.118Z,0
2017-02-06T00:28:31.788Z,0
2017-02-06T00:29:42.456Z,0
2017-02-06T00:30:52.731Z,0
2017-02-06T00:32:03.417Z,0
2017-02-06T00:33:14.091Z,0
2017-02-06T00:34:24.766Z,0
2017-02-06T00:35:35.433Z,0
2017-02-06T00:36:46.108Z,0
2017-02-06T00:37:56.782Z,0
2017-02-06T00:39:07.452Z,0
2017-02-06T00:40:17.725Z,0
2017-02-06T00:41:28.400Z,0
2017-02-06T00:42:39.076Z,0
2017-02-06T00:43:49.349Z,0
2017-02-06T00:45:00.023Z,0
2017-02-06T00:46:10.300Z,0
2017-02-06T00:47:20.981Z,0
2017-02-06T00:48:31.258Z,0
2017-02-06T00:49:41.931Z,0
2017-02-06T00:50:52.598Z,0
2017-02-06T00:52:03.275Z,0
2017-02-06T00:53:13.543Z,0
2017-02-06T00:54:24.215Z,0
2017-02-06T00:55:34.891Z,0
2017-02-06T00:56:45.564Z,0
2017-02-06T00:57:56.229Z,0
2017-02-06T00:59:06.907Z,0
2017-02-06T01:00:17.585Z,0
2017-02-06T01:01:27.860Z,0
2017-02-06T01:02:38.534Z,0
2017-02-06T01:03:48.848Z,0
2017-02-06T01:04:59.523Z,0
2017-02-06T01:06:10.194Z,0
2017-02-06T01:07:20.871Z,0
2017-02-06T01:08:31.151Z,0
2017-02-06T01:09:41.826Z,0
2017-02-06T01:10:52.500Z,0
2017-02-06T01:12:03.178Z,0
2017-02-06T01:13:13.853Z,0
2017-02-06T01:14:24.575Z,0
2017-02-06T01:15:35.245Z,0
2017-02-06T01:16:45.920Z,0
2017-02-06T01:17:56.598Z,0
2017-02-06T01:19:07.272Z,0
2017-02-06T01:20:17.950Z,0
2017-02-06T01:21:28.625Z,0
2017-02-06T01:22:39.302Z,0
2017-02-06T01:23:49.971Z,0
2017-02-06T01:25:00.647Z,0
2017-02-06T01:26:10.521Z,0
2017-02-06T01:27:20.793Z,0
2017-02-06T01:28:31.470Z,0
2017-02-06T01:29:42.145Z,0
2017-02-06T01:30:52.021Z,0
2017-02-06T01:32:02.699Z,0
2017-02-06T01:33:12.976Z,0
2017-02-06T01:34:23.648Z,0
2017-02-06T01:35:34.321Z,0
2017-02-06T01:36:45.031Z,0
2017-02-06T01:37:55.306Z,0
2017-02-06T01:39:05.981Z,0
2017-02-06T01:40:16.259Z,0
2017-02-06T01:41:26.929Z,0
2017-02-06T01:42:37.602Z,0
2017-02-06T01:43:48.270Z,0
2017-02-06T01:44:58.940Z,0
2017-02-06T01:46:09.221Z,0
2017-02-06T01:47:19.501Z,0
2017-02-06T01:48:30.178Z,0
2017-02-06T01:49:40.852Z,0
2017-02-06T01:50:51.562Z,0
2017-02-06T01:52:02.236Z,0
2017-02-06T01:53:12.911Z,0
2017-02-06T01:54:23.583Z,0
2017-02-06T01:55:34.256Z,0
2017-02-06T01:56:44.923Z,0
2017-02-06T01:57:55.199Z,0
2017-02-06T01:59:05.870Z,0
2017-02-06T02:00:16.146Z,0
2017-02-06T02:01:26.819Z,0
2017-02-06T02:02:37.483Z,0
2017-02-06T02:03:48.157Z,0
2017-02-06T02:04:58.479Z,0
2017-02-06T02:06:09.154Z,0
2017-02-06T02:07:19.424Z,0
2017-02-06T02:08:30.096Z,0
2017-02-06T02:09:40.767Z,0
2017-02-06T02:10:51.444Z,0
2017-02-06T02:12:02.116Z,0
2017-02-06T02:13:12.786Z,0
2017-02-06T02:14:23.456Z,0
2017-02-06T02:15:33.727Z,0
2017-02-06T02:16:44.396Z,0
2017-02-06T02:17:55.063Z,0
2017-02-06T02:19:05.736Z,0
2017-02-06T02:20:16.408Z,0
2017-02-06T02:21:27.086Z,0
2017-02-06T02:22:37.757Z,0
2017-02-06T02:23:48.431Z,0
2017-02-06T02:24:59.108Z,0
2017-02-06T02:26:09.783Z,0
2017-02-06T02:27:20.449Z,0
2017-02-06T02:28:31.125Z,0
2017-02-06T02:29:41.799Z,0
2017-02-06T02:30:52.470Z,0
2017-02-06T02:32:03.143Z,0
2017-02-06T02:33:13.816Z,0
2017-02-06T02:34:24.493Z,0
2017-02-06T02:35:35.169Z,0
2017-02-06T02:36:45.840Z,0
2017-02-06T02:37:56.114Z,0
2017-02-06T02:39:06.789Z,0
2017-02-06T02:40:17.459Z,0
2017-02-06T02:41:28.135Z,0
2017-02-06T02:42:38.807Z,0
2017-02-06T02:43:49.478Z,0
2017-02-06T02:45:00.150Z,0
2017-02-06T02:46:10.851Z,0
2017-02-06T02:47:21.533Z,0
2017-02-06T02:48:32.199Z,0
2017-02-06T02:49:42.473Z,0
2017-02-06T02:50:52.748Z,0
2017-02-06T02:52:03.024Z,0
2017-02-06T02:53:13.696Z,0
2017-02-06T02:54:24.409Z,0
2017-02-06T02:55:34.685Z,0
2017-02-06T02:56:45.358Z,0
2017-02-06T02:57:56.037Z,0
2017-02-06T02:59:06.716Z,0
2017-02-06T03:00:17.409Z,0
2017-02-06T03:01:28.082Z,0
2017-02-06T03:02:38.754Z,0
2017-02-06T03:03:49.030Z,0
2017-02-06T03:04:59.708Z,0
2017-02-06T03:06:10.381Z,0
2017-02-06T03:07:21.051Z,0
2017-02-06T03:08:31.325Z,0
2017-02-06T03:09:41.998Z,0
2017-02-06T03:10:52.672Z,0
2017-02-06T03:12:03.346Z,0
2017-02-06T03:13:13.222Z,0
2017-02-06T03:14:23.894Z,0
2017-02-06T03:15:34.171Z,0
2017-02-06T03:16:44.836Z,0
2017-02-06T03:17:55.511Z,0
2017-02-06T03:19:06.184Z,0
2017-02-06T03:20:16.919Z,0
2017-02-06T03:21:27.590Z,0
2017-02-06T03:22:38.267Z,0
2017-02-06T03:23:48.939Z,0
2017-02-06T03:24:59.607Z,0
2017-02-06T03:26:10.274Z,0
2017-02-06T03:27:20.552Z,0
2017-02-06T03:28:31.221Z,0
2017-02-06T03:29:41.895Z,0
2017-02-06T03:30:52.174Z,0
2017-02-06T03:32:02.843Z,0
2017-02-06T03:33:13.125Z,0
2017-02-06T03:34:23.801Z,0
2017-02-06T03:35:34.074Z,0
2017-02-06T03:36:44.749Z,0
2017-02-06T03:37:55.419Z,0
2017-02-06T03:39:06.090Z,0
2017-02-06T03:40:16.766Z,0
2017-02-06T03:41:27.433Z,0
2017-02-06T03:42:38.108Z,0
2017-02-06T03:43:48.783Z,0
2017-02-06T03:44:59.451Z,0
2017-02-06T03:46:09.733Z,0
2017-02-06T03:47:20.006Z,0
2017-02-06T03:48:30.672Z,0
2017-02-06T03:49:41.343Z,0
2017-02-06T03:50:52.013Z,0
2017-02-06T03:52:02.687Z,0
2017-02-06T03:53:13.360Z,0
2017-02-06T03:54:23.639Z,0
2017-02-06T03:55:34.313Z,0
2017-02-06T03:56:44.993Z,0
2017-02-06T03:57:55.663Z,0
2017-02-06T03:59:05.941Z,0
2017-02-06T04:00:16.232Z,0
2017-02-06T04:01:26.510Z,0
2017-02-06T04:02:36.792Z,0
2017-02-06T04:03:47.463Z,0
2017-02-06T04:04:58.136Z,0
2017-02-06T04:06:08.810Z,0
2017-02-06T04:07:19.477Z,0
2017-02-06T04:08:30.158Z,0
2017-02-06T04:09:40.832Z,0
2017-02-06T04:10:51.505Z,0
2017-02-06T04:12:02.177Z,0
2017-02-06T04:13:12.852Z,0
2017-02-06T04:14:23.176Z,0
2017-02-06T04:15:33.853Z,0
2017-02-06T04:16:44.523Z,0
2017-02-06T04:17:54.805Z,0
2017-02-06T04:19:05.481Z,0
2017-02-06T04:20:15.755Z,0
2017-02-06T04:21:26.426Z,0
2017-02-06T04:22:37.097Z,0
2017-02-06T04:23:47.772Z,0
2017-02-06T04:24:58.443Z,0
2017-02-06T04:26:09.137Z,0
2017-02-06T04:27:19.809Z,0
2017-02-06T04:28:30.478Z,0
2017-02-06T04:29:41.153Z,0
2017-02-06T04:30:51.429Z,0
2017-02-06T04:32:02.152Z,0
2017-02-06T04:33:12.423Z,0
2017-02-06T04:34:23.095Z,0
2017-02-06T04:35:33.765Z,0
2017-02-06T04:36:44.439Z,0
2017-02-06T04:37:55.109Z,0
2017-02-06T04:39:05.827Z,0
2017-02-06T04:40:16.499Z,0
2017-02-06T04:41:27.175Z,0
2017-02-06T04:42:37.846Z,0
2017-02-06T04:43:48.517Z,0
2017-02-06T04:44:59.190Z,0
2017-02-06T04:46:09.866Z,0
2017-02-06T04:47:20.547Z,0
2017-02-06T04:48:31.217Z,0
2017-02-06T04:49:41.892Z,0
2017-02-06T04:50:52.164Z,0
2017-02-06T04:52:02.833Z,0
2017-02-06T04:53:13.514Z,0
2017-02-06T04:54:24.185Z,0
2017-02-06T04:55:34.854Z,0
2017-02-06T04:56:45.524Z,0
2017-02-06T04:57:56.203Z,0
2017-02-06T04:59:06.877Z,0
2017-02-06T05:00:17.150Z,0
2017-02-06T05:01:27.820Z,0
2017-02-06T05:02:38.491Z,0
2017-02-06T05:03:49.158Z,0
2017-02-06T05:04:59.833Z,0
2017-02-06T05:06:09.714Z,0
2017-02-06T05:07:20.383Z,0
2017-02-06T05:08:31.056Z,0
2017-02-06T05:09:41.728Z,0
2017-02-06T05:10:52.398Z,0
2017-02-06T05:12:03.069Z,0
2017-02-06T05:13:13.745Z,0
2017-02-06T05:14:24.416Z,0
2017-02-06T05:15:34.294Z,0
2017-02-06T05:16:44.962Z,0
2017-02-06T05:17:55.635Z,0
2017-02-06T05:19:06.310Z,0
2017-02-06T05:20:16.587Z,0
2017-02-06T05:21:27.265Z,0
2017-02-06T05:22:37.941Z,0
2017-02-06T05:23:48.610Z,0
2017-02-06T05:24:59.284Z,0
2017-02-06T05:26:09.559Z,0
2017-02-06T05:27:20.234Z,0
2017-02-06T05:28:29.322Z,0
2017-02-06T05:29:40.015Z,0
2017-02-06T05:30:50.685Z,0
2017-02-06T05:32:01.360Z,0
2017-02-06T05:33:12.038Z,0
2017-02-06T05:34:22.317Z,0
2017-02-06T05:35:32.992Z,0
2017-02-06T05:36:43.669Z,0
2017-02-06T05:37:53.946Z,0
2017-02-06T05:39:04.628Z,0
2017-02-06T05:40:14.907Z,0
2017-02-06T05:41:25.584Z,0
2017-02-06T05:42:36.263Z,0
2017-02-06T05:43:46.934Z,0
2017-02-06T05:44:57.211Z,0
2017-02-06T05:46:07.887Z,0
2017-02-06T05:47:18.561Z,0
2017-02-06T05:48:28.833Z,0
2017-02-06T05:49:39.107Z,0
2017-02-06T05:50:49.784Z,0
2017-02-06T05:52:00.454Z,0
2017-02-06T05:53:11.130Z,0
2017-02-06T05:54:21.800Z,0
2017-02-06T05:55:32.071Z,0
2017-02-06T05:56:42.745Z,0
2017-02-06T05:57:53.418Z,0
2017-02-06T05:59:04.086Z,0
2017-02-06T06:00:14.754Z,0
2017-02-06T06:01:25.423Z,0
2017-02-06T06:02:36.101Z,0
2017-02-06T06:03:46.376Z,0
2017-02-06T06:04:57.052Z,0
2017-02-06T06:06:07.726Z,0
2017-02-06T06:07:18.401Z,0
2017-02-06T06:08:29.076Z,0
2017-02-06T06:09:39.751Z,0
2017-02-06T06:10:49.632Z,0
2017-02-06T06:12:00.309Z,0
2017-02-06T06:13:10.985Z,0
2017-02-06T06:14:21.658Z,0
2017-02-06T06:15:32.333Z,0
2017-02-06T06:16:43.004Z,0
2017-02-06T06:17:53.677Z,0
2017-02-06T06:19:04.395Z,0
2017-02-06T06:20:14.670Z,0
2017-02-06T06:21:25.335Z,0
2017-02-06T06:22:36.008Z,0
2017-02-06T06:23:46.778Z,0
2017-02-06T06:24:57.450Z,0
2017-02-06T06:26:07.727Z,0
2017-02-06T06:27:18.401Z,0
2017-02-06T06:28:29.071Z,0
2017-02-06T06:29:39.739Z,0
2017-02-06T06:30:50.411Z,0
2017-02-06T06:32:01.086Z,0
2017-02-06T06:33:11.793Z,0
2017-02-06T06:34:22.484Z,0
2017-02-06T06:35:33.151Z,0
2017-02-06T06:36:43.460Z,0
2017-02-06T06:37:54.130Z,4
2017-02-06T06:39:04.813Z,0
2017-02-06T06:40:15.086Z,0
2017-02-06T06:41:25.761Z,4
2017-02-06T06:42:36.429Z,4
2017-02-06T06:43:47.102Z,4
2017-02-06T06:44:57.384Z,4
2017-02-06T06:46:08.054Z,4
2017-02-06T06:47:17.935Z,4
2017-02-06T06:48:28.607Z,8
2017-02-06T06:49:39.277Z,8
2017-02-06T06:50:49.947Z,8
2017-02-06T06:52:00.621Z,8
2017-02-06T06:53:10.899Z,12
2017-02-06T06:54:21.574Z,12
2017-02-06T06:55:31.860Z,16
2017-02-06T06:56:42.526Z,16
2017-02-06T06:57:53.198Z,20
2017-02-06T06:59:03.871Z,20
2017-02-06T07:00:14.146Z,24
2017-02-06T07:01:24.819Z,28
2017-02-06T07:02:35.487Z,36
2017-02-06T07:03:46.157Z,40
2017-02-06T07:04:56.829Z,44
2017-02-06T07:06:07.500Z,52
2017-02-06T07:07:18.177Z,56
2017-02-06T07:08:28.850Z,64
2017-02-06T07:09:39.518Z,76
2017-02-06T07:10:50.186Z,84
2017-02-06T07:12:00.856Z,92
2017-02-06T07:13:11.526Z,104
2017-02-06T07:14:22.242Z,108
2017-02-06T07:15:32.918Z,120
2017-02-06T07:16:43.585Z,128
2017-02-06T07:17:54.255Z,140
2017-02-06T07:19:04.935Z,152
2017-02-06T07:20:15.206Z,164
2017-02-06T07:21:25.881Z,172
2017-02-06T07:22:36.163Z,188
2017-02-06T07:23:46.837Z,200
2017-02-06T07:24:57.504Z,212
2017-02-06T07:26:07.778Z,232
2017-02-06T07:27:18.050Z,248
2017-02-06T07:28:28.327Z,260
2017-02-06T07:29:38.996Z,280
2017-02-06T07:30:49.668Z,292
2017-02-06T07:32:00.347Z,308
2017-02-06T07:33:11.024Z,320
2017-02-06T07:34:21.697Z,328
2017-02-06T07:35:32.372Z,332
2017-02-06T07:36:43.052Z,344
2017-02-06T07:37:53.724Z,356
2017-02-06T07:39:04.404Z,376
2017-02-06T07:40:14.986Z,396
2017-02-06T07:41:25.697Z,412
2017-02-06T07:42:35.973Z,424
2017-02-06T07:43:46.292Z,432
2017-02-06T07:44:56.965Z,444
2017-02-06T07:46:07.636Z,460
2017-02-06T07:47:17.907Z,480
2017-02-06T07:48:28.583Z,512
2017-02-06T07:49:39.251Z,540
2017-02-06T07:50:49.932Z,568
2017-02-06T07:52:00.600Z,580
2017-02-06T07:53:11.269Z,600
2017-02-06T07:54:21.945Z,620
2017-02-06T07:55:32.617Z,636
2017-02-06T07:56:42.892Z,656
2017-02-06T07:57:53.565Z,668
2017-02-06T07:59:04.236Z,692
2017-02-06T08:00:14.900Z,724
2017-02-06T08:01:25.573Z,764
2017-02-06T08:02:35.843Z,800
2017-02-06T08:03:46.516Z,792
2017-02-06T08:04:57.193Z,780
2017-02-06T08:06:07.861Z,764
2017-02-06T08:07:18.534Z,760
2017-02-06T08:08:29.248Z,772
2017-02-06T08:09:39.528Z,772
2017-02-06T08:10:50.210Z,756
2017-02-06T08:12:00.879Z,744
2017-02-06T08:13:11.155Z,752
2017-02-06T08:14:21.823Z,788
2017-02-06T08:15:32.847Z,816
2017-02-06T08:16:43.516Z,828
2017-02-06T08:17:54.187Z,836
2017-02-06T08:19:04.855Z,856
2017-02-06T08:20:14.743Z,888
2017-02-06T08:21:25.418Z,920
2017-02-06T08:22:35.694Z,952
2017-02-06T08:23:46.364Z,976
2017-02-06T08:24:57.035Z,988
2017-02-06T08:26:07.705Z,1028
2017-02-06T08:27:17.977Z,1044
2017-02-06T08:28:28.649Z,988
2017-02-06T08:29:38.922Z,896
2017-02-06T08:30:49.598Z,796
2017-02-06T08:32:00.267Z,888
2017-02-06T08:33:10.945Z,1048
2017-02-06T08:34:20.821Z,1104
2017-02-06T08:35:31.491Z,1036
2017-02-06T08:36:42.166Z,928
2017-02-06T08:37:52.839Z,848
2017-02-06T08:39:03.510Z,928
2017-02-06T08:40:14.187Z,1004
2017-02-06T08:41:24.862Z,1132
2017-02-06T08:42:35.142Z,1204
2017-02-06T08:43:45.815Z,1340
2017-02-06T08:44:56.489Z,1556
2017-02-06T08:46:07.158Z,1588
2017-02-06T08:47:17.833Z,1728
2017-02-06T08:48:28.504Z,1936
2017-02-06T08:49:38.784Z,2132
2017-02-06T08:50:49.461Z,2280
2017-02-06T08:52:00.137Z,2388
2017-02-06T08:53:10.815Z,2456
2017-02-06T08:54:21.487Z,2424
2017-02-06T08:55:31.761Z,2324
2017-02-06T08:56:42.434Z,2308
2017-02-06T08:57:53.110Z,2300
2017-02-06T08:59:03.782Z,2328
2017-02-06T09:00:14.060Z,2316
2017-02-06T09:01:24.731Z,2364
2017-02-06T09:02:35.402Z,2412
2017-02-06T09:03:46.078Z,2428
2017-02-06T09:04:56.750Z,2424
2017-02-06T09:06:07.430Z,2380
2017-02-06T09:07:18.098Z,2368
2017-02-06T09:08:28.768Z,2364
2017-02-06T09:09:39.437Z,2344
2017-02-06T09:10:49.716Z,2328
2017-02-06T09:12:00.387Z,2336
2017-02-06T09:13:11.066Z,2348
2017-02-06T09:14:21.788Z,2416
2017-02-06T09:15:32.462Z,2488
2017-02-06T09:16:43.132Z,2568
2017-02-06T09:17:53.811Z,2628
2017-02-06T09:19:04.488Z,2676
2017-02-06T09:20:15.159Z,2756
2017-02-06T09:21:25.835Z,2796
2017-02-06T09:22:36.114Z,2824
2017-02-06T09:23:46.785Z,2836
2017-02-06T09:24:57.458Z,2892
2017-02-06T09:26:07.337Z,2972
2017-02-06T09:27:18.012Z,3028
2017-02-06T09:28:28.681Z,3056
2017-02-06T09:29:38.957Z,3092
2017-02-06T09:30:49.629Z,3132
2017-02-06T09:32:00.305Z,3164
2017-02-06T09:33:10.975Z,3192
2017-02-06T09:34:21.644Z,3212
2017-02-06T09:35:31.924Z,3248
2017-02-06T09:36:42.596Z,3284
2017-02-06T09:37:53.317Z,3324
2017-02-06T09:39:04.560Z,3356
2017-02-06T09:40:15.031Z,3408
2017-02-06T09:41:25.707Z,3460
2017-02-06T09:42:35.982Z,3492
2017-02-06T09:43:46.651Z,3548
2017-02-06T09:44:57.373Z,3612
2017-02-06T09:46:08.041Z,3684
2017-02-06T09:47:18.319Z,3732
2017-02-06T09:48:28.600Z,3784
2017-02-06T09:49:39.273Z,3840
2017-02-06T09:50:49.944Z,3868
2017-02-06T09:52:00.615Z,3864
2017-02-06T09:53:11.288Z,3860
2017-02-06T09:54:21.963Z,3892
2017-02-06T09:55:32.635Z,3952
2017-02-06T09:56:43.304Z,4004
2017-02-06T09:57:53.974Z,4020
2017-02-06T09:59:04.652Z,3992
2017-02-06T10:00:14.935Z,4020
2017-02-06T10:01:25.603Z,4128
2017-02-06T10:02:36.274Z,4220
2017-02-06T10:03:46.946Z,4248
2017-02-06T10:04:57.613Z,4260
2017-02-06T10:06:07.886Z,4236
2017-02-06T10:07:18.161Z,4176
2017-02-06T10:08:28.835Z,4084
2017-02-06T10:09:39.510Z,4128
2017-02-06T10:10:50.191Z,4148
2017-02-06T10:12:00.866Z,4212
2017-02-06T10:13:11.538Z,4232
2017-02-06T10:14:22.216Z,4200
2017-02-06T10:15:32.488Z,4180
2017-02-06T10:16:42.375Z,4196
2017-02-06T10:17:53.044Z,4200
2017-02-06T10:19:03.319Z,4216
2017-02-06T10:20:13.197Z,4244
2017-02-06T10:21:23.875Z,4236
2017-02-06T10:22:34.549Z,4260
2017-02-06T10:23:44.827Z,4292
2017-02-06T10:24:55.495Z,4268
2017-02-06T10:26:05.771Z,4284
2017-02-06T10:27:16.048Z,4240
2017-02-06T10:28:26.726Z,4344
2017-02-06T10:29:37.409Z,4432
2017-02-06T10:30:47.693Z,4372
2017-02-06T10:31:57.966Z,4404
2017-02-06T10:33:08.635Z,4540
2017-02-06T10:34:19.303Z,4664
2017-02-06T10:35:29.979Z,4676
2017-02-06T10:36:40.650Z,4700
2017-02-06T10:37:51.328Z,4752
2017-02-06T10:39:02.002Z,4628
2017-02-06T10:40:12.676Z,4560
2017-02-06T10:41:22.954Z,4388
2017-02-06T10:42:33.623Z,4320
2017-02-06T10:43:44.302Z,4328
2017-02-06T10:44:54.976Z,4420
2017-02-06T10:46:05.256Z,4440
2017-02-06T10:47:15.930Z,4348
2017-02-06T10:48:26.600Z,4280
2017-02-06T10:49:36.878Z,4284
2017-02-06T10:50:47.550Z,4068
2017-02-06T10:51:58.223Z,3584
2017-02-06T10:53:08.931Z,3328
2017-02-06T10:54:19.607Z,3184
2017-02-06T10:55:30.289Z,3016
2017-02-06T10:56:40.962Z,2912
2017-02-06T10:57:51.634Z,2820
2017-02-06T10:59:02.307Z,2708
2017-02-06T11:00:12.189Z,2680
2017-02-06T11:01:22.069Z,2664
2017-02-06T11:02:32.747Z,2636
2017-02-06T11:03:43.417Z,2640
2017-02-06T11:04:53.700Z,2684
2017-02-06T11:06:04.378Z,2768
2017-02-06T11:07:14.256Z,2796
2017-02-06T11:08:24.537Z,2784
2017-02-06T11:09:35.211Z,2784
2017-02-06T11:10:45.924Z,2808
2017-02-06T11:11:56.599Z,2788
2017-02-06T11:13:07.272Z,2792
2017-02-06T11:14:17.150Z,2796
2017-02-06T11:15:27.821Z,2820
2017-02-06T11:16:38.494Z,2892
2017-02-06T11:17:49.166Z,2928
2017-02-06T11:18:59.839Z,2952
2017-02-06T11:20:10.119Z,2928
2017-02-06T11:21:20.795Z,2888
2017-02-06T11:22:31.501Z,2872
2017-02-06T11:23:42.229Z,2824
2017-02-06T11:24:52.900Z,2808
2017-02-06T11:26:03.573Z,2784
2017-02-06T11:27:14.251Z,2764
2017-02-06T11:28:24.920Z,2672
2017-02-06T11:29:35.195Z,2540
2017-02-06T11:30:45.868Z,2440
2017-02-06T11:31:56.534Z,2396
2017-02-06T11:33:07.207Z,2428
2017-02-06T11:34:17.884Z,2584
2017-02-06T11:35:28.555Z,2768
2017-02-06T11:36:39.227Z,2860
2017-02-06T11:37:49.104Z,2960
2017-02-06T11:38:59.779Z,3096
2017-02-06T11:40:10.060Z,3108
2017-02-06T11:41:20.735Z,3176
2017-02-06T11:42:31.411Z,3260
2017-02-06T11:43:42.085Z,3400
2017-02-06T11:44:51.963Z,3608
2017-02-06T11:46:02.632Z,3736
2017-02-06T11:47:13.311Z,3680
2017-02-06T11:48:23.979Z,3620
2017-02-06T11:49:34.655Z,3432
2017-02-06T11:50:45.321Z,3384
2017-02-06T11:51:55.998Z,3536
2017-02-06T11:53:06.267Z,3676
2017-02-06T11:54:16.939Z,3928
2017-02-06T11:55:27.610Z,4068
2017-02-06T11:56:38.279Z,4116
2017-02-06T11:57:48.160Z,4140
2017-02-06T11:58:58.837Z,4192
2017-02-06T12:00:08.715Z,4232
2017-02-06T12:01:18.593Z,4296
2017-02-06T12:02:29.270Z,4368
2017-02-06T12:03:39.936Z,4408
2017-02-06T12:04:50.212Z,4408
2017-02-06T12:06:00.885Z,4388
2017-02-06T12:07:11.567Z,4320
2017-02-06T12:08:21.847Z,4408
2017-02-06T12:09:33.264Z,4420
2017-02-06T12:10:43.937Z,4448
2017-02-06T12:11:54.608Z,4476
2017-02-06T12:13:05.392Z,4484
2017-02-06T12:14:16.112Z,4464
2017-02-06T12:15:26.416Z,4456
2017-02-06T12:16:37.094Z,4468
2017-02-06T12:17:47.418Z,4484
2017-02-06T12:18:58.093Z,4460
2017-02-06T12:20:08.762Z,4404
2017-02-06T12:21:19.435Z,4404
2017-02-06T12:22:30.109Z,4400
2017-02-06T12:23:40.782Z,4392
2017-02-06T12:24:51.459Z,4428
2017-02-06T12:26:01.732Z,4416
2017-02-06T12:27:12.012Z,4364
2017-02-06T12:28:22.685Z,4380
2017-02-06T12:29:32.957Z,4340
2017-02-06T12:30:43.625Z,4468
2017-02-06T12:31:54.297Z,4636
2017-02-06T12:33:04.968Z,4772
2017-02-06T12:34:15.242Z,4880
2017-02-06T12:35:25.910Z,4908
2017-02-06T12:36:36.588Z,4876
2017-02-06T12:37:46.857Z,4824
2017-02-06T12:38:57.536Z,4752
2017-02-06T12:40:08.211Z,4680
2017-02-06T12:41:18.888Z,4660
2017-02-06T12:42:29.559Z,4684
2017-02-06T12:43:40.268Z,4656
2017-02-06T12:44:50.941Z,4696
2017-02-06T12:46:01.609Z,4632
2017-02-06T12:47:11.888Z,4584
2017-02-06T12:48:22.573Z,4624
2017-02-06T12:49:33.252Z,4552
2017-02-06T12:50:43.925Z,4296
2017-02-06T12:51:54.597Z,4112
2017-02-06T12:53:05.267Z,4080
2017-02-06T12:54:15.939Z,4212
2017-02-06T12:55:26.612Z,4196
2017-02-06T12:56:36.893Z,4152
2017-02-06T12:57:47.572Z,4128
2017-02-06T12:58:58.241Z,4016
2017-02-06T13:00:08.516Z,3920
2017-02-06T13:01:19.190Z,3860
2017-02-06T13:02:29.861Z,3704
2017-02-06T13:03:40.538Z,3792
2017-02-06T13:04:50.862Z,3892
2017-02-06T13:06:01.134Z,3792
2017-02-06T13:07:11.407Z,3628
2017-02-06T13:08:22.080Z,3712
2017-02-06T13:09:32.762Z,3844
2017-02-06T13:10:43.430Z,3908
2017-02-06T13:11:54.096Z,3892
2017-02-06T13:13:04.377Z,3908
2017-02-06T13:14:15.055Z,4092
2017-02-06T13:15:25.729Z,4132
2017-02-06T13:16:36.396Z,3928
2017-02-06T13:17:46.673Z,3772
2017-02-06T13:18:57.347Z,3792
2017-02-06T13:20:08.025Z,3912
2017-02-06T13:21:18.703Z,3992
2017-02-06T13:22:28.984Z,4000
2017-02-06T13:23:39.657Z,3952
2017-02-06T13:24:50.331Z,3868
2017-02-06T13:26:01.005Z,3868
2017-02-06T13:27:11.675Z,3800
2017-02-06T13:28:21.950Z,3640
2017-02-06T13:29:32.624Z,3544
2017-02-06T13:30:43.297Z,3476
2017-02-06T13:31:53.988Z,3436
2017-02-06T13:33:04.662Z,3440
2017-02-06T13:34:14.541Z,3416
2017-02-06T13:35:25.215Z,3368
2017-02-06T13:36:35.894Z,3272
2017-02-06T13:37:46.568Z,3116
2017-02-06T13:38:57.241Z,3036
2017-02-06T13:40:07.919Z,2852
2017-02-06T13:41:18.192Z,2644
2017-02-06T13:42:28.865Z,2520
2017-02-06T13:43:39.534Z,2456
2017-02-06T13:44:50.207Z,2400
2017-02-06T13:46:00.886Z,2324
2017-02-06T13:47:11.597Z,2256
2017-02-06T13:48:22.280Z,2188
2017-02-06T13:49:32.557Z,2104
2017-02-06T13:50:43.236Z,2012
2017-02-06T13:51:53.117Z,1864
2017-02-06T13:53:03.793Z,1752
2017-02-06T13:54:14.463Z,1684
2017-02-06T13:55:25.127Z,1660
2017-02-06T13:56:35.403Z,1640
2017-02-06T13:57:45.683Z,1660
2017-02-06T13:58:55.961Z,1684
2017-02-06T14:00:06.637Z,1612
2017-02-06T14:01:17.354Z,1540
2017-02-06T14:02:28.025Z,1496
2017-02-06T14:03:38.697Z,1508
2017-02-06T14:04:49.371Z,1528
2017-02-06T14:06:00.044Z,1384
2017-02-06T14:07:10.743Z,1236
2017-02-06T14:08:21.414Z,1208
2017-02-06T14:09:31.687Z,1208
2017-02-06T14:10:42.354Z,1204
2017-02-06T14:11:53.022Z,1256
2017-02-06T14:13:03.694Z,1260
2017-02-06T14:14:13.967Z,1252
2017-02-06T14:15:24.649Z,1272
2017-02-06T14:16:35.318Z,1264
2017-02-06T14:17:45.994Z,1260
2017-02-06T14:18:56.665Z,1220
2017-02-06T14:20:07.332Z,1228
2017-02-06T14:21:17.607Z,1268
2017-02-06T14:22:28.279Z,1324
2017-02-06T14:23:38.949Z,1380
2017-02-06T14:24:49.620Z,1420
2017-02-06T14:26:00.285Z,1448
2017-02-06T14:27:10.962Z,1468
2017-02-06T14:28:21.233Z,1504
2017-02-06T14:29:31.902Z,1516
2017-02-06T14:30:42.570Z,1516
2017-02-06T14:31:53.239Z,1500
2017-02-06T14:33:03.909Z,1488
2017-02-06T14:34:14.589Z,1484
2017-02-06T14:35:25.260Z,1472
2017-02-06T14:36:35.933Z,1456
2017-02-06T14:37:46.614Z,1436
2017-02-06T14:38:57.283Z,1448
2017-02-06T14:40:07.555Z,1428
2017-02-06T14:41:18.231Z,1396
2017-02-06T14:42:28.909Z,1352
2017-02-06T14:43:39.576Z,1336
2017-02-06T14:44:50.252Z,1336
2017-02-06T14:46:00.962Z,1388
2017-02-06T14:47:11.638Z,1408
2017-02-06T14:48:22.317Z,1400
2017-02-06T14:49:32.993Z,1400
2017-02-06T14:50:43.666Z,1384
2017-02-06T14:51:54.339Z,1328
2017-02-06T14:53:05.011Z,1216
2017-02-06T14:54:15.682Z,1188
2017-02-06T14:55:26.351Z,1172
2017-02-06T14:56:37.017Z,1156
2017-02-06T14:57:47.693Z,1168
2017-02-06T15:00:06.906Z,1172
2017-02-06T15:01:17.196Z,1148
2017-02-06T15:02:27.875Z,1124
2017-02-06T15:03:38.555Z,1072
2017-02-06T15:04:49.226Z,1000
2017-02-06T15:05:59.899Z,944
2017-02-06T15:07:10.171Z,876
2017-02-06T15:08:20.842Z,804
2017-02-06T15:09:31.514Z,708
2017-02-06T15:10:41.793Z,624
2017-02-06T15:11:52.065Z,568
2017-02-06T15:13:02.647Z,560
2017-02-06T15:14:13.319Z,532
2017-02-06T15:15:23.987Z,492
2017-02-06T15:16:34.664Z,464
2017-02-06T15:17:45.341Z,464
2017-02-06T15:18:56.108Z,472
2017-02-06T15:20:06.772Z,456
2017-02-06T15:21:17.450Z,440
2017-02-06T15:22:28.125Z,424
2017-02-06T15:23:38.793Z,400
2017-02-06T15:24:49.471Z,376
2017-02-06T15:26:00.146Z,352
2017-02-06T15:27:10.432Z,336
2017-02-06T15:28:21.104Z,340
2017-02-06T15:29:31.409Z,340
2017-02-06T15:30:42.076Z,320
2017-02-06T15:31:52.745Z,304
2017-02-06T15:33:02.624Z,292
2017-02-06T15:34:12.118Z,260
2017-02-06T15:35:22.785Z,248
2017-02-06T15:36:33.455Z,240
2017-02-06T15:37:44.126Z,224
2017-02-06T15:38:54.797Z,212
2017-02-06T15:40:04.676Z,200
2017-02-06T15:41:15.350Z,184
2017-02-06T15:42:26.017Z,164
2017-02-06T15:43:35.896Z,156
2017-02-06T15:44:46.562Z,140
2017-02-06T15:45:56.836Z,128
2017-02-06T15:47:07.503Z,116
2017-02-06T15:48:18.176Z,108
2017-02-06T15:49:28.839Z,96
2017-02-06T15:50:39.533Z,88
2017-02-06T15:51:50.201Z,84
2017-02-06T15:53:00.868Z,72
2017-02-06T15:54:11.546Z,64
2017-02-06T15:55:22.218Z,48
2017-02-06T15:56:32.884Z,44
2017-02-06T15:57:43.553Z,40
2017-02-06T15:58:54.233Z,36
2017-02-06T16:00:04.904Z,32
2017-02-06T16:01:15.566Z,28
2017-02-06T16:02:26.234Z,24
2017-02-06T16:03:36.506Z,24
2017-02-06T16:04:47.167Z,20
2017-02-06T16:05:57.832Z,16
2017-02-06T16:07:08.498Z,12
2017-02-06T16:08:19.169Z,12
2017-02-06T16:09:29.873Z,8
2017-02-06T16:10:40.149Z,8
2017-02-06T16:11:50.814Z,8
2017-02-06T16:13:01.481Z,8
2017-02-06T16:14:12.153Z,4
2017-02-06T16:15:22.422Z,4
2017-02-06T16:16:33.095Z,4
2017-02-06T16:17:43.369Z,4
2017-02-06T16:18:53.643Z,4
2017-02-06T16:20:04.308Z,0
2017-02-06T16:21:14.981Z,4
2017-02-06T16:22:25.252Z,4
2017-02-06T16:23:35.926Z,4
2017-02-06T16:24:46.595Z,0
2017-02-06T16:25:56.866Z,0
2017-02-06T16:27:07.533Z,0
2017-02-06T16:28:18.213Z,0
2017-02-06T16:29:28.884Z,0
2017-02-06T16:30:39.553Z,0